Time;durP1;ratioP1;P1;durP2;ratioP2;P2;SDS_P1;SDS_P2;PMS_P1;PMS_P2;Temp;Humidity;BMP_temperature;BMP_pressure;BME280_temperature;BME280_humidity;BME280_pressure;Samples;Min_cycle;Max_cycle;Signal;HPM_P1;HPM_P2
2023/01/23 00:01:41;;;;;;;6.80;5.30;;;;;9.00;103329.00;;;;5077283;28;20206;-73
2023/01/23 00:04:09;;;;;;;9.65;5.75;;;;;9.00;103330.00;;;;5080598;28;20221;-73
2023/01/23 00:06:37;;;;;;;7.43;5.43;;;;;9.10;103344.00;;;;5085828;28;20202;-73
2023/01/23 00:09:04;;;;;;;10.25;5.30;;;;;9.00;103340.00;;;;5078395;28;20202;-73
2023/01/23 00:11:32;;;;;;;8.60;5.78;;;;;9.10;103345.00;;;;5073177;28;20194;-74
2023/01/23 00:14:00;;;;;;;8.90;5.65;;;;;9.00;103338.00;;;;5075162;28;20195;-73
2023/01/23 00:16:30;;;;;;;6.50;4.72;;;;;9.00;103344.00;;;;5075081;28;20195;-73
2023/01/23 00:18:59;;;;;;;7.93;5.65;;;;;9.00;103347.00;;;;5083486;28;20194;-73
2023/01/23 00:21:28;;;;;;;9.70;5.85;;;;;9.00;103345.00;;;;5084147;28;20205;-73
2023/01/23 00:24:00;;;;;;;6.57;5.35;;;;;9.00;103340.00;;;;5087019;28;20225;-73
2023/01/23 00:26:31;;;;;;;7.85;5.22;;;;;9.00;103344.00;;;;5077318;28;20681;-73
2023/01/23 00:28:58;;;;;;;8.05;5.40;;;;;9.00;103347.00;;;;5083718;28;20198;-73
2023/01/23 00:31:29;;;;;;;7.07;5.22;;;;;9.00;103339.00;;;;5074393;28;20203;-74
2023/01/23 00:34:00;;;;;;;6.15;5.03;;;;;9.00;103338.00;;;;5068961;28;20665;-73
2023/01/23 00:36:29;;;;;;;11.40;5.85;;;;;9.00;103343.00;;;;5073918;28;20203;-74
2023/01/23 00:38:57;;;;;;;8.70;5.32;;;;;8.90;103340.00;;;;5073743;28;20210;-74
2023/01/23 00:41:24;;;;;;;6.93;5.38;;;;;8.90;103341.00;;;;5087610;28;20207;-73
2023/01/23 00:43:52;;;;;;;7.05;5.57;;;;;8.90;103333.00;;;;5080946;28;20227;-73
2023/01/23 00:46:19;;;;;;;9.23;5.63;;;;;8.90;103343.00;;;;5069595;28;20237;-74
2023/01/23 00:48:47;;;;;;;17.30;5.63;;;;;8.90;103340.00;;;;5079824;28;21081;-74
2023/01/23 00:51:16;;;;;;;7.13;5.03;;;;;8.90;103348.00;;;;5070160;28;20198;-74
2023/01/23 00:53:43;;;;;;;8.93;5.88;;;;;8.90;103350.00;;;;5085476;28;20194;-73
2023/01/23 00:56:10;;;;;;;8.82;5.38;;;;;8.90;103337.00;;;;5069103;28;20203;-73
2023/01/23 00:58:39;;;;;;;7.35;5.88;;;;;8.90;103339.00;;;;5071824;28;20653;-73
2023/01/23 01:01:06;;;;;;;10.73;5.22;;;;;8.90;103338.00;;;;5077986;28;20294;-73
2023/01/23 01:03:34;;;;;;;8.40;5.30;;;;;8.90;103344.00;;;;5088493;28;20225;-73
2023/01/23 01:06:02;;;;;;;7.90;5.35;;;;;8.90;103340.00;;;;5081353;28;20207;-73
2023/01/23 01:08:31;;;;;;;6.78;5.65;;;;;8.80;103333.00;;;;5076488;28;20218;-74
2023/01/23 01:10:58;;;;;;;9.20;5.25;;;;;8.90;103321.00;;;;5073593;28;20199;-73
2023/01/23 01:13:26;;;;;;;7.47;5.93;;;;;8.90;103304.00;;;;5087703;28;20221;-73
2023/01/23 01:15:54;;;;;;;7.65;5.57;;;;;8.80;103313.00;;;;5079237;28;20202;-73
2023/01/23 01:18:22;;;;;;;7.78;5.40;;;;;8.80;103319.00;;;;5082724;28;20207;-73
2023/01/23 01:20:50;;;;;;;8.63;5.78;;;;;8.80;103313.00;;;;5079580;28;20194;-73
2023/01/23 01:23:19;;;;;;;8.55;6.38;;;;;8.80;103314.00;;;;5085598;28;20228;-74
2023/01/23 01:25:47;;;;;;;9.48;5.95;;;;;8.80;103320.00;;;;5073926;28;20205;-73
2023/01/23 01:28:15;;;;;;;9.25;6.05;;;;;8.80;103319.00;;;;5077259;28;20205;-73
2023/01/23 01:30:42;;;;;;;8.80;6.38;;;;;8.80;103325.00;;;;5088333;28;20190;-73
2023/01/23 01:33:10;;;;;;;10.05;5.40;;;;;8.80;103331.00;;;;5075620;28;20656;-74
2023/01/23 01:35:39;;;;;;;7.78;5.65;;;;;8.80;103338.00;;;;5089331;28;20202;-73
2023/01/23 01:38:07;;;;;;;8.18;4.85;;;;;8.80;103334.00;;;;5088227;28;20277;-73
2023/01/23 01:40:36;;;;;;;9.25;5.57;;;;;8.70;103333.00;;;;5081213;28;20195;-73
2023/01/23 01:43:07;;;;;;;8.07;6.00;;;;;8.70;103339.00;;;;5069131;28;20199;-73
2023/01/23 01:46:14;;;;;;;13.10;6.88;;;;;8.60;103332.00;;;;5068621;28;20226;-73
2023/01/23 01:48:49;;;;;;;8.90;5.03;;;;;8.70;103329.00;;;;5083212;28;20202;-74
2023/01/23 01:51:21;;;;;;;8.15;5.65;;;;;8.70;103335.00;;;;5082491;28;20198;-74
2023/01/23 01:53:54;;;;;;;8.90;5.93;;;;;8.70;103338.00;;;;5083661;28;20195;-74
2023/01/23 01:56:22;;;;;;;7.50;5.07;;;;;8.70;103332.00;;;;5081748;28;20197;-74
2023/01/23 01:58:53;;;;;;;8.13;5.05;;;;;8.70;103331.00;;;;5087961;28;20202;-74
2023/01/23 02:01:20;;;;;;;7.60;5.53;;;;;8.70;103341.00;;;;5077378;28;20202;-74
2023/01/23 02:03:49;;;;;;;6.57;4.82;;;;;8.70;103344.00;;;;5079272;28;20222;-74
2023/01/23 02:06:17;;;;;;;12.98;6.53;;;;;8.70;103326.00;;;;5087630;28;20213;-74
2023/01/23 02:08:50;;;;;;;7.75;5.38;;;;;8.70;103338.00;;;;5087230;28;20202;-74
2023/01/23 02:11:18;;;;;;;8.15;5.50;;;;;8.70;103344.00;;;;5082354;28;20199;-74
2023/01/23 02:13:46;;;;;;;6.75;5.07;;;;;8.70;103341.00;;;;5079069;28;20186;-74
2023/01/23 02:16:18;;;;;;;9.50;5.30;;;;;8.70;103348.00;;;;5079455;28;20203;-74
2023/01/23 02:18:49;;;;;;;7.45;5.60;;;;;8.70;103344.00;;;;5068782;28;20225;-74
2023/01/23 02:21:21;;;;;;;7.68;5.40;;;;;8.70;103354.00;;;;5075959;28;20214;-74
2023/01/23 02:24:02;;;;;;;9.55;5.95;;;;;8.70;103344.00;;;;5070395;28;20222;-74
2023/01/23 02:26:35;;;;;;;11.60;6.38;;;;;8.70;103344.00;;;;5085723;28;20248;-74
2023/01/23 02:29:04;;;;;;;7.45;5.15;;;;;8.70;103346.00;;;;5079130;28;20659;-74
2023/01/23 02:31:31;;;;;;;9.13;5.88;;;;;8.70;103349.00;;;;5071535;28;20191;-75
2023/01/23 02:34:00;;;;;;;8.40;6.18;;;;;8.80;103350.00;;;;5068204;28;20199;-74
2023/01/23 02:36:29;;;;;;;8.68;6.13;;;;;8.70;103358.00;;;;5070846;28;20222;-74
2023/01/23 02:39:03;;;;;;;8.35;5.60;;;;;8.70;103355.00;;;;5090709;28;20194;-74
2023/01/23 02:41:33;;;;;;;9.95;6.32;;;;;8.70;103350.00;;;;5084567;28;20199;-74
2023/01/23 02:44:04;;;;;;;11.30;6.85;;;;;8.70;103352.00;;;;5077381;28;20218;-74
2023/01/23 02:46:32;;;;;;;8.00;6.05;;;;;8.80;103356.00;;;;5090426;28;20231;-74
2023/01/23 02:48:59;;;;;;;9.90;6.35;;;;;8.80;103355.00;;;;5090651;28;21020;-74
2023/01/23 02:51:26;;;;;;;9.80;6.20;;;;;8.80;103360.00;;;;5074883;28;20198;-74
2023/01/23 02:53:54;;;;;;;11.23;5.90;;;;;8.80;103360.00;;;;5076414;28;20481;-74
2023/01/23 02:56:21;;;;;;;7.60;5.28;;;;;8.80;103368.00;;;;5081880;28;20696;-74
2023/01/23 03:01:35;;;;;;;11.52;6.35;;;;;8.80;103371.00;;;;5081726;28;20570;-74
2023/01/23 03:04:03;;;;;;;9.95;6.35;;;;;8.80;103369.00;;;;5074191;28;20818;-74
2023/01/23 03:06:36;;;;;;;9.20;6.38;;;;;8.80;103366.00;;;;5070969;28;20211;-74
2023/01/23 03:09:09;;;;;;;10.65;6.80;;;;;8.70;103364.00;;;;5087596;28;20281;-74
2023/01/23 03:11:38;;;;;;;13.02;6.65;;;;;8.80;103367.00;;;;5087726;28;20546;-74
2023/01/23 03:14:09;;;;;;;8.38;5.35;;;;;8.80;103362.00;;;;5089196;28;20197;-74
2023/01/23 03:16:37;;;;;;;9.55;5.53;;;;;8.80;103371.00;;;;5087967;28;20199;-74
2023/01/23 03:19:07;;;;;;;8.50;5.97;;;;;8.80;103371.00;;;;5077618;28;20199;-74
2023/01/23 03:21:39;;;;;;;9.85;6.22;;;;;8.80;103367.00;;;;5082035;28;20209;-74
2023/01/23 03:24:07;;;;;;;9.52;6.43;;;;;8.80;103370.00;;;;5073174;28;20210;-75
2023/01/23 03:26:34;;;;;;;9.95;5.93;;;;;8.80;103367.00;;;;5084154;28;20203;-74
2023/01/23 03:31:48;;;;;;;9.60;6.18;;;;;8.80;103369.00;;;;5087476;28;20255;-74
2023/01/23 03:34:16;;;;;;;7.63;5.78;;;;;8.70;103373.00;;;;5078066;28;20567;-74
2023/01/23 03:36:44;;;;;;;11.13;6.75;;;;;8.80;103365.00;;;;5085951;28;20205;-74
2023/01/23 03:41:56;;;;;;;11.45;5.95;;;;;8.70;103370.00;;;;5086528;28;20507;-74
2023/01/23 03:44:23;;;;;;;11.63;7.03;;;;;8.80;103377.00;;;;5080166;28;20229;-74
2023/01/23 03:46:52;;;;;;;10.65;6.45;;;;;8.80;103374.00;;;;5083551;28;20237;-74
2023/01/23 03:49:20;;;;;;;12.45;6.57;;;;;8.80;103374.00;;;;5077545;28;20723;-74
2023/01/23 03:51:47;;;;;;;11.60;6.57;;;;;8.80;103370.00;;;;5089427;28;20201;-74
2023/01/23 03:54:15;;;;;;;8.77;6.45;;;;;8.80;103368.00;;;;5078295;28;20199;-74
2023/01/23 03:56:42;;;;;;;11.52;6.35;;;;;8.80;103375.00;;;;5085624;28;20195;-74
2023/01/23 03:59:10;;;;;;;11.50;6.20;;;;;8.80;103375.00;;;;5081107;28;20573;-74
2023/01/23 04:01:38;;;;;;;9.20;6.20;;;;;8.80;103373.00;;;;5076362;28;20195;-74
2023/01/23 04:04:06;;;;;;;11.13;6.72;;;;;8.80;103376.00;;;;5081445;28;20214;-74
2023/01/23 04:06:35;;;;;;;11.98;6.60;;;;;8.80;103384.00;;;;5089485;28;21100;-74
2023/01/23 04:09:02;;;;;;;9.95;6.75;;;;;8.80;103379.00;;;;5073520;28;20205;-74
2023/01/23 04:11:30;;;;;;;14.35;6.50;;;;;8.80;103382.00;;;;5085486;28;20197;-74
2023/01/23 04:13:57;;;;;;;12.18;6.70;;;;;8.90;103381.00;;;;5089818;28;20731;-74
2023/01/23 04:16:26;;;;;;;9.93;6.35;;;;;8.90;103380.00;;;;5077844;28;20190;-74
2023/01/23 04:18:54;;;;;;;12.68;6.10;;;;;8.90;103386.00;;;;5082049;28;20248;-74
2023/01/23 04:21:22;;;;;;;8.98;5.47;;;;;8.90;103385.00;;;;5087834;28;20260;-74
2023/01/23 04:23:50;;;;;;;11.30;7.25;;;;;8.90;103391.00;;;;5073337;28;20205;-74
2023/01/23 04:26:17;;;;;;;10.25;6.45;;;;;8.90;103390.00;;;;5069861;28;20206;-74
2023/01/23 04:28:44;;;;;;;10.13;6.35;;;;;8.90;103402.00;;;;5080838;28;20202;-74
2023/01/23 04:31:12;;;;;;;9.05;6.18;;;;;8.90;103394.00;;;;5071056;28;20210;-74
2023/01/23 04:33:39;;;;;;;9.10;6.65;;;;;8.90;103396.00;;;;5083279;28;20199;-74
2023/01/23 04:36:07;;;;;;;9.07;5.88;;;;;8.90;103396.00;;;;5084883;28;20202;-74
2023/01/23 04:38:36;;;;;;;10.75;6.82;;;;;8.90;103392.00;;;;5075332;28;20654;-74
2023/01/23 04:41:04;;;;;;;10.48;6.45;;;;;8.90;103397.00;;;;5076389;28;20217;-74
2023/01/23 04:43:31;;;;;;;10.77;6.43;;;;;8.90;103397.00;;;;5074183;28;20203;-75
2023/01/23 04:45:58;;;;;;;10.48;6.13;;;;;8.90;103393.00;;;;5068855;28;20728;-74
2023/01/23 04:48:27;;;;;;;9.35;6.65;;;;;8.90;103400.00;;;;5084331;28;20198;-74
2023/01/23 04:50:55;;;;;;;10.23;7.03;;;;;8.90;103396.00;;;;5079087;28;20198;-74
2023/01/23 04:53:23;;;;;;;10.50;6.40;;;;;8.90;103397.00;;;;5083086;28;20288;-74
2023/01/23 04:55:52;;;;;;;9.95;5.95;;;;;8.90;103398.00;;;;5077265;28;20207;-74
2023/01/23 04:58:19;;;;;;;9.93;6.32;;;;;8.90;103392.00;;;;5084155;28;20206;-74
2023/01/23 05:00:47;;;;;;;11.45;7.00;;;;;8.90;103392.00;;;;5076296;28;20199;-74
2023/01/23 05:03:14;;;;;;;8.77;6.50;;;;;8.90;103396.00;;;;5083460;28;20191;-74
2023/01/23 05:05:43;;;;;;;10.88;6.72;;;;;8.90;103397.00;;;;5086202;28;20221;-74
2023/01/23 05:08:10;;;;;;;8.13;5.97;;;;;8.90;103393.00;;;;5087069;28;20252;-74
2023/01/23 05:10:38;;;;;;;11.55;6.95;;;;;8.90;103398.00;;;;5071937;28;20194;-74
2023/01/23 05:13:08;;;;;;;9.70;6.57;;;;;8.90;103402.00;;;;5089279;28;20206;-74
2023/01/23 05:15:35;;;;;;;9.02;5.97;;;;;8.90;103400.00;;;;5087677;28;20616;-74
2023/01/23 05:18:03;;;;;;;9.18;6.30;;;;;8.90;103403.00;;;;5088693;28;20206;-74
2023/01/23 05:20:30;;;;;;;9.73;6.32;;;;;8.90;103403.00;;;;5081722;28;20255;-74
2023/01/23 05:22:57;;;;;;;9.40;6.45;;;;;8.90;103410.00;;;;5081898;28;20660;-74
2023/01/23 05:25:27;;;;;;;11.50;7.82;;;;;8.90;103416.00;;;;5086033;28;20221;-74
2023/01/23 05:27:54;;;;;;;9.35;7.00;;;;;8.90;103409.00;;;;5073629;28;20182;-74
2023/01/23 05:30:23;;;;;;;9.48;6.75;;;;;8.90;103411.00;;;;5078614;28;20206;-74
2023/01/23 05:32:53;;;;;;;10.07;6.63;;;;;8.90;103402.00;;;;5082436;28;20555;-74
2023/01/23 05:35:21;;;;;;;9.82;6.35;;;;;8.90;103416.00;;;;5071593;28;20961;-74
2023/01/23 05:37:51;;;;;;;11.00;7.03;;;;;8.90;103419.00;;;;5086555;28;20206;-74
2023/01/23 05:40:20;;;;;;;11.93;6.60;;;;;8.90;103422.00;;;;5088587;28;20209;-74
2023/01/23 05:42:48;;;;;;;10.52;6.78;;;;;8.90;103428.00;;;;5087952;28;20205;-74
2023/01/23 05:45:16;;;;;;;8.98;6.22;;;;;8.90;103425.00;;;;5087256;28;20739;-74
2023/01/23 05:47:45;;;;;;;7.75;6.07;;;;;8.90;103422.00;;;;5086006;28;20579;-74
2023/01/23 05:50:15;;;;;;;11.27;6.40;;;;;8.90;103421.00;;;;5070005;28;20206;-74
2023/01/23 05:52:43;;;;;;;10.95;6.55;;;;;9.00;103426.00;;;;5080058;28;20570;-74
2023/01/23 05:55:10;;;;;;;7.88;6.40;;;;;8.90;103421.00;;;;5077932;28;20213;-74
2023/01/23 05:57:38;;;;;;;11.27;6.50;;;;;9.00;103428.00;;;;5072300;28;20198;-74
2023/01/23 06:00:09;;;;;;;11.57;6.95;;;;;8.90;103419.00;;;;5081788;28;20198;-74
2023/01/23 06:02:36;;;;;;;10.13;6.70;;;;;9.00;103429.00;;;;5077289;28;20190;-75
2023/01/23 06:05:05;;;;;;;11.02;7.03;;;;;9.00;103425.00;;;;5085594;28;20704;-75
2023/01/23 06:07:33;;;;;;;9.13;6.60;;;;;9.00;103423.00;;;;5077510;28;20214;-72
2023/01/23 06:10:00;;;;;;;13.73;6.53;;;;;9.00;103426.00;;;;5069837;28;20198;-72
2023/01/23 06:12:27;;;;;;;9.38;6.68;;;;;9.00;103428.00;;;;5082013;28;20198;-72
2023/01/23 06:14:54;;;;;;;10.77;6.72;;;;;9.00;103422.00;;;;5081626;28;20201;-74
2023/01/23 06:17:22;;;;;;;10.57;7.10;;;;;9.00;103426.00;;;;5073947;28;20473;-74
2023/01/23 06:19:49;;;;;;;8.75;6.22;;;;;9.00;103420.00;;;;5070248;28;20277;-74
2023/01/23 06:22:18;;;;;;;10.05;6.88;;;;;9.00;103422.00;;;;5085815;28;20664;-74
2023/01/23 06:24:45;;;;;;;9.07;6.63;;;;;9.00;103417.00;;;;5076915;28;20234;-74
2023/01/23 06:27:12;;;;;;;10.70;7.07;;;;;9.00;103421.00;;;;5083515;28;20653;-75
2023/01/23 06:29:39;;;;;;;9.90;6.72;;;;;9.00;103431.00;;;;5070839;28;20202;-75
2023/01/23 06:32:07;;;;;;;11.88;6.80;;;;;9.00;103437.00;;;;5082022;28;20668;-75
2023/01/23 06:34:35;;;;;;;7.88;6.07;;;;;9.10;103438.00;;;;5083056;28;20190;-75
2023/01/23 06:37:02;;;;;;;13.27;6.68;;;;;9.10;103447.00;;;;5087614;28;20198;-76
2023/01/23 06:39:32;;;;;;;8.95;6.57;;;;;9.10;103450.00;;;;5072808;28;20560;-76
2023/01/23 06:42:00;;;;;;;12.00;6.65;;;;;9.10;103448.00;;;;5069468;28;20213;-76
2023/01/23 06:44:27;;;;;;;10.32;7.00;;;;;9.10;103461.00;;;;5075395;28;20214;-75
2023/01/23 06:46:55;;;;;;;9.52;6.63;;;;;9.10;103459.00;;;;5074515;28;20223;-75
2023/01/23 06:49:22;;;;;;;8.27;6.38;;;;;9.10;103471.00;;;;5067924;28;20203;-78
2023/01/23 06:51:49;;;;;;;10.52;6.60;;;;;9.20;103478.00;;;;5079834;28;20202;-75
2023/01/23 06:54:17;;;;;;;10.25;7.13;;;;;9.20;103466.00;;;;5083621;28;20205;-75
2023/01/23 06:56:45;;;;;;;9.30;6.47;;;;;9.10;103472.00;;;;5084005;28;20213;-76
2023/01/23 06:59:13;;;;;;;9.07;6.53;;;;;9.20;103472.00;;;;5087710;28;20187;-73
2023/01/23 07:01:40;;;;;;;8.98;6.75;;;;;9.20;103470.00;;;;5085460;28;20202;-74
2023/01/23 07:04:07;;;;;;;8.32;6.55;;;;;9.20;103462.00;;;;5086932;28;20194;-73
2023/01/23 07:06:35;;;;;;;8.18;6.28;;;;;9.20;103462.00;;;;5071266;28;20246;-75
2023/01/23 07:09:02;;;;;;;13.02;7.13;;;;;9.20;103454.00;;;;5079220;28;20195;-74
2023/01/23 07:11:30;;;;;;;8.75;6.35;;;;;9.20;103457.00;;;;5079085;28;20210;-73
2023/01/23 07:13:58;;;;;;;9.90;7.18;;;;;9.20;103457.00;;;;5080750;28;20209;-73
2023/01/23 07:16:26;;;;;;;9.90;6.43;;;;;9.20;103458.00;;;;5087457;28;20285;-73
2023/01/23 07:18:53;;;;;;;11.43;6.82;;;;;9.20;103451.00;;;;5074863;28;20207;-73
2023/01/23 07:21:21;;;;;;;9.43;6.90;;;;;9.20;103457.00;;;;5072293;28;20245;-73
2023/01/23 07:23:49;;;;;;;10.10;6.35;;;;;9.20;103456.00;;;;5075847;28;20571;-73
2023/01/23 07:26:17;;;;;;;12.30;7.25;;;;;9.20;103451.00;;;;5083452;28;20607;-75
2023/01/23 07:28:44;;;;;;;9.88;6.45;;;;;9.20;103456.00;;;;5076749;28;20202;-74
2023/01/23 07:31:13;;;;;;;10.57;6.95;;;;;9.20;103451.00;;;;5077491;28;20225;-73
2023/01/23 07:33:40;;;;;;;10.70;7.10;;;;;9.20;103456.00;;;;5078514;28;20294;-73
2023/01/23 07:36:09;;;;;;;9.35;6.93;;;;;9.20;103458.00;;;;5089358;28;20205;-73
2023/01/23 07:38:36;;;;;;;10.82;7.40;;;;;9.20;103468.00;;;;5082370;28;20195;-73
2023/01/23 07:41:03;;;;;;;9.07;6.57;;;;;9.20;103473.00;;;;5076613;28;20202;-73
2023/01/23 07:43:30;;;;;;;11.25;6.82;;;;;9.20;103496.00;;;;5089610;28;20201;-73
2023/01/23 07:45:59;;;;;;;9.40;6.85;;;;;9.20;103488.00;;;;5085687;28;20242;-73
2023/01/23 07:48:28;;;;;;;11.20;6.70;;;;;9.20;103492.00;;;;5088471;28;20202;-73
2023/01/23 07:50:55;;;;;;;10.20;6.97;;;;;9.20;103493.00;;;;5076861;28;20211;-73
2023/01/23 07:53:23;;;;;;;9.65;7.25;;;;;9.20;103491.00;;;;5076098;28;20198;-73
2023/01/23 07:55:50;;;;;;;13.00;8.50;;;;;9.20;103491.00;;;;5084553;28;20199;-73
2023/01/23 07:58:17;;;;;;;10.10;7.90;;;;;9.20;103498.00;;;;5079300;28;20198;-75
2023/01/23 08:00:44;;;;;;;12.30;7.80;;;;;9.20;103503.00;;;;5087970;28;20190;-76
2023/01/23 08:03:12;;;;;;;9.93;7.50;;;;;9.30;103502.00;;;;5081302;28;20195;-75
2023/01/23 08:05:40;;;;;;;9.90;6.97;;;;;9.20;103503.00;;;;5080555;28;20223;-76
2023/01/23 08:08:08;;;;;;;12.93;8.35;;;;;9.30;103510.00;;;;5074978;28;20189;-75
2023/01/23 08:10:36;;;;;;;11.20;7.45;;;;;9.30;103516.00;;;;5073299;28;20222;-75
2023/01/23 08:13:03;;;;;;;10.02;7.45;;;;;9.30;103517.00;;;;5080485;28;20194;-75
2023/01/23 08:15:30;;;;;;;11.45;7.50;;;;;9.30;103516.00;;;;5072800;28;20209;-75
2023/01/23 08:17:57;;;;;;;12.25;7.00;;;;;9.30;103512.00;;;;5086751;28;20198;-75
2023/01/23 08:20:25;;;;;;;10.80;7.53;;;;;9.30;103516.00;;;;5075022;28;20206;-75
2023/01/23 08:22:54;;;;;;;10.95;7.38;;;;;9.40;103517.00;;;;5077121;28;20210;-75
2023/01/23 08:25:22;;;;;;;9.68;7.75;;;;;9.40;103514.00;;;;5071686;28;20604;-75
2023/01/23 08:27:50;;;;;;;12.40;8.00;;;;;9.40;103519.00;;;;5072482;28;20205;-76
2023/01/23 08:30:17;;;;;;;11.38;8.27;;;;;9.40;103517.00;;;;5073962;28;20218;-76
2023/01/23 08:32:45;;;;;;;9.60;7.43;;;;;9.40;103520.00;;;;5076382;28;20199;-75
2023/01/23 08:35:13;;;;;;;11.88;7.72;;;;;9.40;103517.00;;;;5073389;28;20206;-75
2023/01/23 08:37:41;;;;;;;11.15;8.05;;;;;9.50;103527.00;;;;5075254;28;20573;-75
2023/01/23 08:40:11;;;;;;;11.43;7.20;;;;;9.40;103526.00;;;;5076247;28;20203;-75
2023/01/23 08:42:38;;;;;;;10.50;8.15;;;;;9.50;103531.00;;;;5074444;28;20782;-75
2023/01/23 08:45:07;;;;;;;10.60;7.90;;;;;9.50;103531.00;;;;5077375;28;20722;-75
2023/01/23 08:47:35;;;;;;;10.13;7.85;;;;;9.50;103526.00;;;;5073872;28;20650;-75
2023/01/23 08:50:03;;;;;;;12.15;8.35;;;;;9.50;103528.00;;;;5078029;28;20202;-75
2023/01/23 08:52:30;;;;;;;11.25;8.40;;;;;9.50;103529.00;;;;5079624;28;20205;-75
2023/01/23 08:54:58;;;;;;;11.68;8.93;;;;;9.60;103533.00;;;;5078373;28;20194;-75
2023/01/23 08:57:27;;;;;;;13.70;9.82;;;;;9.60;103536.00;;;;5078759;28;20632;-76
2023/01/23 08:59:54;;;;;;;15.18;9.45;;;;;9.60;103534.00;;;;5076582;28;20202;-75
2023/01/23 09:02:21;;;;;;;16.90;9.55;;;;;9.70;103534.00;;;;5080316;28;20194;-75
2023/01/23 09:04:49;;;;;;;12.88;9.57;;;;;9.70;103536.00;;;;5080541;28;20194;-75
2023/01/23 09:07:16;;;;;;;12.43;8.32;;;;;9.70;103539.00;;;;5081819;28;20238;-75
2023/01/23 09:09:43;;;;;;;10.52;8.05;;;;;9.80;103548.00;;;;5081363;28;20199;-75
2023/01/23 09:12:11;;;;;;;13.93;8.68;;;;;9.80;103561.00;;;;5071980;28;20210;-76
2023/01/23 09:14:40;;;;;;;12.40;8.18;;;;;9.80;103549.00;;;;5073679;28;20199;-75
2023/01/23 09:17:07;;;;;;;14.73;8.55;;;;;9.90;103550.00;;;;5067363;28;20203;-76
2023/01/23 09:19:34;;;;;;;14.07;8.07;;;;;9.90;103559.00;;;;5075761;28;20766;-76
2023/01/23 09:22:02;;;;;;;12.52;8.38;;;;;9.90;103555.00;;;;5072445;28;20203;-76
2023/01/23 09:24:29;;;;;;;12.55;8.30;;;;;9.90;103550.00;;;;5073586;28;20285;-76
2023/01/23 09:26:57;;;;;;;11.98;8.50;;;;;9.90;103555.00;;;;5080311;28;20229;-76
2023/01/23 09:29:25;;;;;;;12.82;9.10;;;;;10.00;103548.00;;;;5081371;28;20199;-76
2023/01/23 09:31:53;;;;;;;11.40;8.18;;;;;10.00;103544.00;;;;5069576;28;20207;-75
2023/01/23 09:34:21;;;;;;;11.93;7.72;;;;;10.00;103548.00;;;;5075321;28;20209;-74
2023/01/23 09:36:48;;;;;;;11.82;7.70;;;;;10.10;103552.00;;;;5083013;28;20205;-74
2023/01/23 09:39:15;;;;;;;10.55;8.05;;;;;10.10;103557.00;;;;5083010;28;20213;-74
2023/01/23 09:41:44;;;;;;;11.80;8.02;;;;;10.10;103557.00;;;;5078993;28;20198;-75
2023/01/23 09:44:18;;;;;;;11.60;7.78;;;;;10.10;103555.00;;;;5077820;28;20214;-74
2023/01/23 09:46:49;;;;;;;11.65;8.35;;;;;10.20;103569.00;;;;5074035;28;20617;-76
2023/01/23 09:49:25;;;;;;;12.88;8.43;;;;;10.20;103577.00;;;;5074278;28;20194;-75
2023/01/23 09:51:58;;;;;;;11.45;7.95;;;;;10.20;103556.00;;;;5075322;28;20205;-74
2023/01/23 09:54:42;;;;;;;9.60;7.28;;;;;10.20;103566.00;;;;5068290;28;20203;-75
2023/01/23 09:57:14;;;;;;;11.30;7.97;;;;;10.30;103576.00;;;;5076193;28;20256;-74
2023/01/23 09:59:47;;;;;;;10.02;7.70;;;;;10.30;103565.00;;;;5077781;28;20205;-74
2023/01/23 10:02:18;;;;;;;12.52;8.05;;;;;10.30;103567.00;;;;5082632;28;20194;-74
2023/01/23 10:04:48;;;;;;;9.55;7.63;;;;;10.30;103576.00;;;;5070807;28;20952;-74
2023/01/23 10:07:33;;;;;;;11.13;7.32;;;;;10.30;103572.00;;;;5080243;28;20589;-74
2023/01/23 10:10:20;;;;;;;10.95;7.65;;;;;10.40;103583.00;;;;5087437;28;20213;-74
2023/01/23 10:12:56;;;;;;;12.27;8.48;;;;;10.50;103572.00;;;;5072207;28;20197;-74
2023/01/23 10:15:30;;;;;;;12.02;8.88;;;;;10.50;103570.00;;;;5074509;28;20198;-74
2023/01/23 10:18:06;;;;;;;11.00;6.93;;;;;10.50;103569.00;;;;5072206;28;20190;-74
2023/01/23 10:20:57;;;;;;;12.65;8.55;;;;;10.50;103572.00;;;;5068290;28;20676;-74
2023/01/23 10:23:56;;;;;;;11.35;7.68;;;;;10.50;103567.00;;;;5072795;28;20584;-74
2023/01/23 10:26:27;;;;;;;10.70;8.23;;;;;10.60;103556.00;;;;5073273;28;20241;-74
2023/01/23 10:28:59;;;;;;;13.85;7.90;;;;;10.70;103564.00;;;;5073361;28;20202;-74
2023/01/23 10:31:36;;;;;;;11.18;8.15;;;;;10.70;103555.00;;;;5077606;28;20652;-74
2023/01/23 10:34:14;;;;;;;10.80;8.07;;;;;10.70;103561.00;;;;5073577;28;20282;-74
2023/01/23 10:36:54;;;;;;;12.07;8.10;;;;;10.70;103551.00;;;;5070940;28;20277;-74
2023/01/23 10:39:27;;;;;;;13.10;9.02;;;;;10.70;103545.00;;;;5075543;28;21016;-74
2023/01/23 10:41:54;;;;;;;11.73;8.43;;;;;10.80;103544.00;;;;5074733;28;20202;-74
2023/01/23 10:44:22;;;;;;;10.73;7.53;;;;;10.80;103541.00;;;;5076460;28;20220;-74
2023/01/23 10:46:53;;;;;;;12.25;8.27;;;;;10.80;103542.00;;;;5070594;28;20296;-74
2023/01/23 10:49:33;;;;;;;11.85;8.05;;;;;10.80;103549.00;;;;5073122;28;20198;-74
2023/01/23 10:52:03;;;;;;;10.27;7.43;;;;;10.90;103547.00;;;;5074570;28;20207;-75
2023/01/23 10:54:30;;;;;;;12.80;8.27;;;;;10.90;103547.00;;;;5070808;28;20202;-74
2023/01/23 10:57:00;;;;;;;13.20;7.85;;;;;10.90;103551.00;;;;5071878;28;20209;-74
2023/01/23 10:59:32;;;;;;;10.48;8.38;;;;;10.90;103559.00;;;;5079860;28;20199;-74
2023/01/23 11:02:20;;;;;;;11.65;8.00;;;;;10.90;103559.00;;;;5077404;28;20810;-74
2023/01/23 11:04:52;;;;;;;12.10;8.30;;;;;11.00;103553.00;;;;5075201;28;20206;-74
2023/01/23 11:07:24;;;;;;;12.40;8.40;;;;;11.00;103552.00;;;;5080129;28;20309;-74
2023/01/23 11:09:54;;;;;;;9.48;6.85;;;;;11.10;103556.00;;;;5076847;28;20207;-74
2023/01/23 11:12:24;;;;;;;10.60;7.45;;;;;11.10;103556.00;;;;5078663;28;20563;-74
2023/01/23 11:14:52;;;;;;;11.98;7.57;;;;;11.10;103554.00;;;;5081473;28;20190;-74
2023/01/23 11:17:25;;;;;;;10.30;7.72;;;;;11.10;103556.00;;;;5079035;28;20194;-74
2023/01/23 11:19:56;;;;;;;9.93;7.80;;;;;11.20;103573.00;;;;5078920;28;20206;-74
2023/01/23 11:22:38;;;;;;;10.73;8.05;;;;;11.10;103564.00;;;;5079158;28;20222;-74
2023/01/23 11:25:28;;;;;;;10.45;8.45;;;;;11.10;103573.00;;;;5076346;28;20198;-74
2023/01/23 11:28:00;;;;;;;11.52;8.30;;;;;11.20;103564.00;;;;5076509;28;20229;-75
2023/01/23 11:30:38;;;;;;;10.40;7.63;;;;;11.20;103560.00;;;;5075995;28;20198;-75
2023/01/23 11:33:13;;;;;;;10.85;7.43;;;;;11.20;103560.00;;;;5075731;28;20194;-74
2023/01/23 11:35:55;;;;;;;10.65;8.00;;;;;11.20;103567.00;;;;5077474;28;20222;-74
2023/01/23 11:38:27;;;;;;;8.43;6.78;;;;;11.30;103572.00;;;;5086345;28;20204;-74
2023/01/23 11:40:55;;;;;;;8.70;6.75;;;;;11.30;103565.00;;;;5074278;28;20198;-75
2023/01/23 11:43:22;;;;;;;8.35;6.32;;;;;11.40;103573.00;;;;5081630;28;20199;-75
2023/01/23 11:46:06;;;;;;;8.88;7.20;;;;;11.30;103568.00;;;;5084489;28;20922;-75
2023/01/23 11:48:50;;;;;;;10.25;7.45;;;;;11.30;103572.00;;;;5079381;28;20209;-75
2023/01/23 11:51:23;;;;;;;9.57;7.28;;;;;11.30;103570.00;;;;5070629;28;20195;-75
2023/01/23 11:54:03;;;;;;;10.02;7.50;;;;;11.30;103574.00;;;;5077981;28;20187;-75
2023/01/23 11:56:59;;;;;;;9.00;7.22;;;;;11.30;103570.00;;;;5071743;28;20194;-75
2023/01/23 11:59:50;;;;;;;8.68;6.60;;;;;11.20;103572.00;;;;5074614;28;20951;-75
2023/01/23 12:02:45;;;;;;;10.65;7.35;;;;;11.20;103573.00;;;;5080479;28;20198;-75
2023/01/23 12:05:43;;;;;;;11.32;6.82;;;;;11.30;103565.00;;;;5075619;28;20214;-73
2023/01/23 12:08:19;;;;;;;9.25;6.65;;;;;11.30;103560.00;;;;5073346;28;20229;-74
2023/01/23 12:10:59;;;;;;;10.38;7.80;;;;;11.20;103559.00;;;;5069939;28;20575;-73
2023/01/23 12:13:41;;;;;;;10.02;6.93;;;;;11.30;103557.00;;;;5073434;28;20195;-73
2023/01/23 12:16:16;;;;;;;11.15;7.20;;;;;11.30;103555.00;;;;5082847;28;20198;-73
2023/01/23 12:18:54;;;;;;;9.77;7.00;;;;;11.40;103552.00;;;;5085273;28;20194;-73
2023/01/23 12:21:30;;;;;;;9.63;6.85;;;;;11.40;103551.00;;;;5074814;28;20203;-73
2023/01/23 12:24:12;;;;;;;8.95;7.15;;;;;11.40;103551.00;;;;5081129;28;20582;-73
2023/01/23 12:26:53;;;;;;;8.27;6.70;;;;;11.40;103559.00;;;;5077106;28;20223;-73
2023/01/23 12:29:38;;;;;;;9.18;7.05;;;;;11.40;103556.00;;;;5075312;28;20688;-73
2023/01/23 12:32:21;;;;;;;9.55;7.78;;;;;11.50;103554.00;;;;5083259;28;20201;-74
2023/01/23 12:35:03;;;;;;;10.32;7.90;;;;;11.60;103560.00;;;;5081201;28;21143;-74